createdAt,value
2018-01-22T00:01:39.197Z,45.50
2018-01-22T00:04:07.079Z,45.50
2018-01-22T00:06:35.742Z,45.40
2018-01-22T00:09:03.546Z,45.40
2018-01-22T00:11:32.167Z,45.60
2018-01-22T00:14:00.027Z,45.50
2018-01-22T00:16:27.778Z,45.70
2018-01-22T00:18:56.299Z,45.80
2018-01-22T00:21:24.140Z,46.30
2018-01-22T00:23:51.943Z,45.90
2018-01-22T00:26:19.678Z,45.80
2018-01-22T00:28:47.467Z,45.90
2018-01-22T00:31:16.212Z,46.00
2018-01-22T00:33:44.755Z,46.20
2018-01-22T00:36:12.498Z,46.10
2018-01-22T00:38:40.331Z,46.10
2018-01-22T00:41:08.090Z,46.00
2018-01-22T00:43:35.980Z,45.90
2018-01-22T00:46:03.778Z,46.10
2018-01-22T00:48:31.530Z,46.00
2018-01-22T00:50:59.260Z,46.00
2018-01-22T00:53:27.784Z,45.90
2018-01-22T00:55:55.569Z,45.90
2018-01-22T00:58:23.413Z,46.00
2018-01-22T01:00:51.230Z,46.00
2018-01-22T01:03:19.004Z,46.10
2018-01-22T01:05:46.838Z,46.10
2018-01-22T01:08:14.633Z,46.10
2018-01-22T01:10:42.450Z,46.10
2018-01-22T01:13:10.210Z,47.00
2018-01-22T01:15:38.070Z,46.30
2018-01-22T01:18:07.237Z,46.30
2018-01-22T01:20:35.059Z,46.60
2018-01-22T01:23:02.903Z,46.40
2018-01-22T01:25:30.736Z,46.50
2018-01-22T01:27:58.549Z,46.30
2018-01-22T01:30:26.287Z,46.20
2018-01-22T01:32:54.832Z,46.40
2018-01-22T01:35:22.622Z,46.10
2018-01-22T01:37:50.439Z,46.10
2018-01-22T01:40:18.273Z,46.10
2018-01-22T01:42:46.886Z,46.10
2018-01-22T01:45:14.703Z,46.60
2018-01-22T01:47:42.459Z,46.20
2018-01-22T01:50:10.192Z,46.10
2018-01-22T01:52:38.020Z,46.20
2018-01-22T01:55:05.793Z,46.20
2018-01-22T01:57:34.300Z,46.90
2018-01-22T02:00:02.070Z,46.20
2018-01-22T02:02:29.939Z,46.20
2018-01-22T02:04:57.779Z,46.20
2018-01-22T02:07:25.617Z,46.20
2018-01-22T02:09:53.372Z,46.00
2018-01-22T02:12:21.184Z,46.20
2018-01-22T02:14:48.954Z,46.20
2018-01-22T02:17:16.723Z,46.10
2018-01-22T02:19:44.640Z,46.20
2018-01-22T02:22:12.462Z,46.10
2018-01-22T02:24:40.999Z,46.20
2018-01-22T02:27:08.826Z,46.10
2018-01-22T02:29:36.571Z,46.10
2018-01-22T02:32:04.389Z,46.00
2018-01-22T02:34:32.233Z,46.00
2018-01-22T02:36:59.970Z,46.30
2018-01-22T02:39:27.739Z,46.10
2018-01-22T02:41:55.512Z,46.10
2018-01-22T02:44:24.074Z,46.00
2018-01-22T02:46:51.855Z,45.90
2018-01-22T02:49:19.702Z,46.00
2018-01-22T02:51:47.506Z,46.00
2018-01-22T02:54:16.091Z,46.30
2018-01-22T02:56:43.940Z,46.20
2018-01-22T02:59:11.745Z,45.90
2018-01-22T03:01:39.518Z,45.90
2018-01-22T03:04:07.336Z,46.00
2018-01-22T03:06:35.127Z,45.90
2018-01-22T03:09:03.689Z,46.00
2018-01-22T03:11:31.609Z,45.90
2018-01-22T03:13:59.455Z,46.00
2018-01-22T03:16:27.360Z,46.00
2018-01-22T03:18:55.257Z,46.00
2018-01-22T03:21:23.081Z,45.90
2018-01-22T03:23:50.868Z,45.80
2018-01-22T03:26:18.631Z,46.10
2018-01-22T03:28:46.449Z,46.00
2018-01-22T03:31:15.040Z,45.90
2018-01-22T03:33:42.848Z,45.80
2018-01-22T03:36:10.593Z,45.80
2018-01-22T03:38:38.408Z,45.80
2018-01-22T03:41:06.233Z,45.80
2018-01-22T03:43:33.997Z,45.70
2018-01-22T03:46:01.748Z,45.70
2018-01-22T03:48:30.276Z,45.80
2018-01-22T03:50:58.035Z,45.80
2018-01-22T03:53:25.813Z,45.80
2018-01-22T03:55:54.405Z,45.80
2018-01-22T03:58:22.150Z,45.80
2018-01-22T04:00:49.985Z,45.80
2018-01-22T04:03:17.884Z,45.70
2018-01-22T04:05:45.672Z,45.70
2018-01-22T04:08:13.505Z,45.70
2018-01-22T04:10:41.306Z,45.80
2018-01-22T04:13:09.152Z,45.70
2018-01-22T04:15:36.948Z,45.70
2018-01-22T04:18:04.760Z,45.60
2018-01-22T04:20:33.084Z,45.80
2018-01-22T04:23:00.966Z,45.80
2018-01-22T04:25:28.808Z,45.90
2018-01-22T04:27:56.555Z,45.80
2018-01-22T04:30:25.141Z,45.80
2018-01-22T04:32:52.988Z,45.60
2018-01-22T04:35:20.817Z,45.80
2018-01-22T04:37:49.613Z,46.10
2018-01-22T04:40:17.480Z,45.90
2018-01-22T04:42:45.222Z,45.90
2018-01-22T04:45:13.051Z,45.90
2018-01-22T04:47:40.849Z,45.90
2018-01-22T04:50:08.639Z,45.80
2018-01-22T04:52:36.461Z,45.60
2018-01-22T04:55:04.278Z,45.40
2018-01-22T04:57:32.820Z,45.20
2018-01-22T05:00:01.399Z,45.00
2018-01-22T05:02:29.211Z,44.90
2018-01-22T05:04:57.013Z,45.00
2018-01-22T05:07:24.780Z,44.80
2018-01-22T05:09:52.531Z,44.70
2018-01-22T05:12:20.312Z,44.60
2018-01-22T05:14:48.080Z,44.30
2018-01-22T05:17:15.942Z,44.10
2018-01-22T05:19:43.804Z,43.90
2018-01-22T05:22:11.608Z,43.60
2018-01-22T05:24:39.376Z,43.40
2018-01-22T05:27:07.197Z,43.30
2018-01-22T05:29:35.927Z,42.90
2018-01-22T05:32:03.714Z,43.20
2018-01-22T05:34:31.504Z,43.30
2018-01-22T05:36:59.375Z,42.80
2018-01-22T05:39:27.304Z,42.70
2018-01-22T05:41:55.192Z,42.50
2018-01-22T05:44:22.997Z,42.10
2018-01-22T05:46:50.898Z,42.50
2018-01-22T05:49:18.789Z,42.60
2018-01-22T05:51:46.740Z,42.20
2018-01-22T05:54:14.601Z,42.00
2018-01-22T05:56:42.506Z,41.90
2018-01-22T05:59:11.402Z,41.60
2018-01-22T06:01:39.272Z,41.30
2018-01-22T06:04:07.186Z,34.20
2018-01-22T06:06:35.164Z,41.30
2018-01-22T06:09:03.210Z,40.90
2018-01-22T06:11:32.215Z,41.10
2018-01-22T06:14:00.078Z,40.50
2018-01-22T06:16:27.984Z,40.70
2018-01-22T06:18:55.869Z,40.30
2018-01-22T06:21:23.793Z,40.40
2018-01-22T06:23:51.661Z,40.50
2018-01-22T06:26:19.596Z,40.50
2018-01-22T06:28:47.461Z,40.20
2018-01-22T06:31:15.322Z,40.50
2018-01-22T06:33:43.287Z,39.50
2018-01-22T06:36:11.892Z,40.70
2018-01-22T06:38:39.866Z,40.70
2018-01-22T06:41:08.363Z,40.70
2018-01-22T06:43:36.296Z,39.60
2018-01-22T06:46:04.185Z,40.10
2018-01-22T06:48:32.036Z,40.00
2018-01-22T06:51:00.644Z,40.10
2018-01-22T06:53:28.959Z,40.00
2018-01-22T06:55:56.871Z,40.10
2018-01-22T06:58:25.590Z,40.10
2018-01-22T07:00:53.514Z,40.00
2018-01-22T07:03:21.408Z,39.90
2018-01-22T07:05:50.886Z,28.60
2018-01-22T07:08:18.782Z,28.80
2018-01-22T07:10:47.477Z,39.80
2018-01-22T07:13:16.372Z,40.30
2018-01-22T07:15:44.429Z,40.20
2018-01-22T07:18:12.709Z,40.80
2018-01-22T07:20:41.391Z,39.70
2018-01-22T07:23:43.513Z,39.60
2018-01-22T07:26:11.450Z,39.20
2018-01-22T07:28:40.791Z,38.90
2018-01-22T07:31:08.638Z,39.10
2018-01-22T07:33:36.582Z,37.70
2018-01-22T07:36:04.471Z,38.30
2018-01-22T07:38:32.369Z,39.00
2018-01-22T07:41:00.333Z,38.70
2018-01-22T07:43:28.329Z,28.00
2018-01-22T07:45:56.270Z,35.10
2018-01-22T07:48:25.331Z,39.60
2018-01-22T07:50:53.488Z,39.30
2018-01-22T07:53:21.759Z,36.10
2018-01-22T07:55:49.780Z,38.10
2018-01-22T07:58:17.647Z,37.50
2018-01-22T08:00:46.311Z,36.50
2018-01-22T08:03:30.658Z,34.80
2018-01-22T08:05:58.859Z,34.80
2018-01-22T08:08:28.372Z,40.00
2018-01-22T08:10:56.207Z,40.00
2018-01-22T08:13:24.173Z,35.50
2018-01-22T08:15:52.285Z,40.60
2018-01-22T08:18:20.193Z,39.40
2018-01-22T08:20:48.171Z,32.60
2018-01-22T08:23:16.113Z,38.50
2018-01-22T08:29:53.602Z,34.20
2018-01-22T08:32:21.452Z,32.10
2018-01-22T08:34:49.317Z,33.60
2018-01-22T08:37:17.189Z,37.90
2018-01-22T08:39:45.055Z,28.90
2018-01-22T08:42:12.940Z,42.90
2018-01-22T08:44:40.999Z,41.20
2018-01-22T08:47:08.973Z,40.30
2018-01-22T08:49:36.937Z,27.20
2018-01-22T08:52:04.905Z,36.20
2018-01-22T08:54:33.132Z,35.90
2018-01-22T08:57:01.551Z,34.60
2018-01-22T08:59:29.486Z,42.60
2018-01-22T09:01:57.402Z,34.30
2018-01-22T09:04:25.254Z,39.40
2018-01-22T09:06:53.322Z,33.90
2018-01-22T09:09:21.558Z,46.90
2018-01-22T09:11:49.479Z,45.50
2018-01-22T09:14:17.341Z,41.80
2018-01-22T09:16:46.187Z,36.90
2018-01-22T09:19:14.096Z,47.20
2018-01-22T09:21:41.964Z,36.50
2018-01-22T09:24:09.833Z,41.60
2018-01-22T09:26:37.696Z,44.70
2018-01-22T09:29:05.556Z,33.00
2018-01-22T09:31:34.049Z,37.10
2018-01-22T09:34:02.015Z,36.50
2018-01-22T09:36:30.086Z,40.70
2018-01-22T09:38:58.135Z,39.00
2018-01-22T09:41:26.119Z,41.20
2018-01-22T09:43:54.913Z,40.10
2018-01-22T09:46:22.781Z,40.30
2018-01-22T09:48:50.747Z,34.30
2018-01-22T09:51:18.611Z,36.50
2018-01-22T09:53:46.478Z,39.00
2018-01-22T09:56:14.340Z,38.00
2018-01-22T09:58:42.208Z,39.60
2018-01-22T10:01:10.073Z,41.40
2018-01-22T10:03:37.940Z,41.90
2018-01-22T10:06:05.805Z,36.60
2018-01-22T10:08:33.885Z,36.00
2018-01-22T10:11:01.844Z,43.60
2018-01-22T10:13:29.712Z,39.80
2018-01-22T10:15:57.593Z,43.60
2018-01-22T10:18:25.664Z,48.90
2018-01-22T10:20:54.039Z,39.00
2018-01-22T10:23:23.437Z,37.40
2018-01-22T10:25:51.507Z,37.20
2018-01-22T10:28:20.713Z,48.50
2018-01-22T10:30:48.775Z,48.50
2018-01-22T10:33:16.644Z,44.30
2018-01-22T10:35:45.426Z,43.50
2018-01-22T10:38:13.394Z,43.20
2018-01-22T10:40:41.262Z,38.80
2018-01-22T10:43:09.128Z,45.90
2018-01-22T10:45:36.993Z,43.20
2018-01-22T10:48:04.868Z,39.90
2018-01-22T10:50:32.730Z,36.50
2018-01-22T10:53:01.412Z,32.30
2018-01-22T10:55:29.280Z,32.30
2018-01-22T10:57:57.153Z,34.00
2018-01-22T11:00:25.123Z,34.40
2018-01-22T11:02:53.025Z,45.00
2018-01-22T11:05:21.724Z,44.20
2018-01-22T11:07:49.647Z,44.30
2018-01-22T11:10:17.500Z,39.30
2018-01-22T11:12:45.686Z,37.10
2018-01-22T11:15:14.363Z,36.70
2018-01-22T11:17:42.227Z,36.50
2018-01-22T11:20:10.212Z,40.40
2018-01-22T11:22:38.215Z,45.30
2018-01-22T11:25:06.031Z,36.70
2018-01-22T11:27:33.898Z,38.50
2018-01-22T11:30:01.875Z,39.50
2018-01-22T11:32:29.741Z,32.80
2018-01-22T11:34:58.426Z,42.70
2018-01-22T11:37:26.287Z,42.80
2018-01-22T11:39:54.151Z,35.10
2018-01-22T11:42:22.025Z,33.60
2018-01-22T11:44:49.887Z,36.10
2018-01-22T11:47:17.862Z,38.70
2018-01-22T11:49:45.832Z,41.10
2018-01-22T11:52:14.510Z,38.70
2018-01-22T11:54:42.384Z,39.00
2018-01-22T11:57:10.240Z,35.70
2018-01-22T11:59:38.108Z,39.30
2018-01-22T12:02:06.085Z,47.20
2018-01-22T12:04:33.942Z,36.90
2018-01-22T12:07:01.811Z,40.90
2018-01-22T12:09:29.676Z,44.00
2018-01-22T12:11:57.555Z,39.20
2018-01-22T12:14:25.626Z,40.70
2018-01-22T12:16:53.590Z,36.90
2018-01-22T12:19:21.459Z,46.30
2018-01-22T12:21:49.324Z,41.60
2018-01-22T12:24:17.294Z,32.60
2018-01-22T12:26:45.150Z,32.30
2018-01-22T12:29:13.016Z,35.60
2018-01-22T12:31:40.885Z,40.30
2018-01-22T12:34:08.860Z,38.70
2018-01-22T12:36:36.725Z,34.20
2018-01-22T12:39:04.688Z,35.30
2018-01-22T12:41:32.561Z,40.40
2018-01-22T12:44:00.633Z,35.00
2018-01-22T12:46:28.491Z,34.40
2018-01-22T12:48:56.359Z,33.50
2018-01-22T12:51:24.223Z,34.90
2018-01-22T12:53:52.092Z,40.90
2018-01-22T12:56:20.089Z,30.60
2018-01-22T12:58:48.746Z,32.30
2018-01-22T13:01:17.138Z,32.10
2018-01-22T13:03:45.102Z,43.90
2018-01-22T13:06:13.788Z,35.30
2018-01-22T13:08:41.654Z,35.00
2018-01-22T13:11:09.511Z,35.50
2018-01-22T13:13:37.490Z,34.50
2018-01-22T13:16:06.942Z,33.70
2018-01-22T13:18:34.852Z,33.90
2018-01-22T13:21:02.723Z,40.70
2018-01-22T13:23:30.585Z,38.70
2018-01-22T13:25:58.563Z,36.30
2018-01-22T13:28:26.419Z,34.00
2018-01-22T13:30:54.289Z,42.20
2018-01-22T13:33:22.530Z,30.40
2018-01-22T13:35:50.642Z,36.20
2018-01-22T13:38:19.342Z,42.80
2018-01-22T13:40:54.168Z,41.10
2018-01-22T13:43:22.425Z,30.20
2018-01-22T13:45:50.710Z,41.90
2018-01-22T13:48:18.570Z,33.80
2018-01-22T13:50:46.434Z,32.10
2018-01-22T13:53:14.405Z,40.10
2018-01-22T13:55:42.281Z,29.60
2018-01-22T13:58:10.247Z,29.90
2018-01-22T14:00:38.213Z,40.30
2018-01-22T14:03:06.185Z,33.50
2018-01-22T14:05:34.159Z,29.20
2018-01-22T14:08:02.320Z,36.70
2018-01-22T14:10:30.191Z,31.90
2018-01-22T14:12:58.060Z,30.80
2018-01-22T14:15:26.851Z,36.70
2018-01-22T14:17:54.821Z,37.00
2018-01-22T14:20:22.675Z,31.90
2018-01-22T14:22:50.550Z,41.90
2018-01-22T14:25:18.408Z,40.30
2018-01-22T14:27:46.384Z,32.30
2018-01-22T14:30:14.352Z,39.20
2018-01-22T14:32:42.325Z,29.10
2018-01-22T14:35:10.294Z,33.50
2018-01-22T14:37:38.577Z,40.50
2018-01-22T14:40:06.539Z,33.50
2018-01-22T14:42:34.509Z,39.00
2018-01-22T14:45:03.186Z,38.00
2018-01-22T14:47:31.272Z,38.00
2018-01-22T14:49:59.838Z,34.70
2018-01-22T14:52:27.703Z,30.70
2018-01-22T14:54:55.579Z,38.10
2018-01-22T14:57:23.550Z,37.40
2018-01-22T14:59:51.516Z,38.20
2018-01-22T15:02:19.386Z,38.10
2018-01-22T15:04:47.242Z,38.10
2018-01-22T15:07:15.109Z,38.10
2018-01-22T15:09:42.982Z,37.80
2018-01-22T15:12:10.953Z,37.90
2018-01-22T15:14:38.809Z,37.90
2018-01-22T15:17:06.677Z,37.80
2018-01-22T15:19:34.544Z,37.50
2018-01-22T15:22:02.520Z,37.80
2018-01-22T15:24:30.378Z,37.90
2018-01-22T15:26:58.253Z,37.60
2018-01-22T15:29:26.215Z,37.60
2018-01-22T15:31:54.078Z,37.60
2018-01-22T15:34:22.054Z,35.20
2018-01-22T15:36:49.916Z,35.40
2018-01-22T15:39:17.794Z,37.50
2018-01-22T15:41:46.268Z,37.50
2018-01-22T15:44:14.238Z,37.40
2018-01-22T15:46:42.099Z,37.70
2018-01-22T15:49:09.862Z,37.70
2018-01-22T15:51:37.832Z,37.80
2018-01-22T15:54:05.807Z,37.90
2018-01-22T15:56:35.839Z,37.70
2018-01-22T15:59:05.203Z,34.30
2018-01-22T16:01:33.092Z,37.50
2018-01-22T16:04:03.068Z,37.50
2018-01-22T16:06:31.897Z,37.50
2018-01-22T16:08:59.869Z,37.50
2018-01-22T16:11:28.545Z,38.00
2018-01-22T16:13:56.625Z,37.70
2018-01-22T16:16:24.594Z,37.90
2018-01-22T16:18:52.572Z,37.70
2018-01-22T16:21:20.634Z,37.60
2018-01-22T16:23:48.506Z,36.90
2018-01-22T16:26:16.358Z,37.40
2018-01-22T16:28:44.233Z,37.60
2018-01-22T16:31:12.306Z,37.40
2018-01-22T16:33:42.723Z,37.30
2018-01-22T16:36:11.454Z,37.30
2018-01-22T16:38:39.335Z,37.20
2018-01-22T16:41:07.242Z,37.10
2018-01-22T16:43:35.221Z,36.90
2018-01-22T16:46:03.395Z,37.30
2018-01-22T16:48:31.361Z,37.50
2018-01-22T16:50:59.220Z,36.60
2018-01-22T16:53:27.089Z,37.70
2018-01-22T16:55:55.376Z,37.40
2018-01-22T16:58:23.513Z,37.60
2018-01-22T17:00:51.405Z,37.80
2018-01-22T17:03:19.374Z,36.50
2018-01-22T17:05:47.351Z,37.80
2018-01-22T17:08:15.317Z,38.00
2018-01-22T17:10:43.188Z,37.40
2018-01-22T17:13:11.042Z,37.20
2018-01-22T17:15:38.912Z,37.80
2018-01-22T17:18:07.422Z,38.00
2018-01-22T17:20:36.185Z,37.20
2018-01-22T17:23:04.056Z,37.20
2018-01-22T17:25:31.912Z,37.80
2018-01-22T17:27:59.881Z,36.90
2018-01-22T17:30:27.746Z,38.10
2018-01-22T17:32:55.622Z,35.90
2018-01-22T17:35:23.592Z,28.90
2018-01-22T17:37:51.457Z,33.10
2018-01-22T17:40:19.269Z,36.40
2018-01-22T17:42:47.184Z,36.40
2018-01-22T17:45:15.357Z,26.90
2018-01-22T17:47:44.282Z,29.00
2018-01-22T17:50:13.268Z,31.90
2018-01-22T17:52:41.217Z,34.70
2018-01-22T17:55:09.177Z,38.00
2018-01-22T17:57:37.146Z,39.10
2018-01-22T18:00:05.172Z,41.30
2018-01-22T18:02:33.291Z,38.50
2018-01-22T18:05:01.166Z,39.30
2018-01-22T18:07:29.134Z,37.70
2018-01-22T18:09:57.408Z,35.80
2018-01-22T18:12:25.269Z,34.70
2018-01-22T18:14:53.135Z,32.30
2018-01-22T18:17:21.615Z,32.40
2018-01-22T18:19:49.797Z,33.30
2018-01-22T18:22:17.656Z,32.90
2018-01-22T18:24:45.735Z,31.60
2018-01-22T18:27:13.592Z,32.70
2018-01-22T18:29:41.472Z,32.50
2018-01-22T18:32:10.148Z,32.10
2018-01-22T18:34:38.113Z,32.10
2018-01-22T18:37:06.083Z,34.10
2018-01-22T18:39:33.949Z,31.20
2018-01-22T18:42:02.431Z,32.50
2018-01-22T18:44:30.308Z,30.90
2018-01-22T18:46:58.172Z,31.70
2018-01-22T18:49:27.505Z,31.60
2018-01-22T18:51:56.148Z,30.50
2018-01-22T18:54:24.026Z,30.50
2018-01-22T18:56:52.094Z,31.00
2018-01-22T18:59:20.065Z,31.50
2018-01-22T19:01:47.933Z,31.60
2018-01-22T19:04:15.788Z,31.90
2018-01-22T19:06:44.310Z,31.90
2018-01-22T19:09:13.063Z,32.70
2018-01-22T19:11:42.044Z,32.00
2018-01-22T19:14:09.925Z,32.20
2018-01-22T19:16:37.750Z,35.30
2018-01-22T19:19:05.759Z,33.70
2018-01-22T19:21:38.332Z,30.80
2018-01-22T19:24:06.195Z,30.70
2018-01-22T19:26:34.173Z,31.00
2018-01-22T19:29:02.749Z,31.60
2018-01-22T19:31:30.625Z,31.10
2018-01-22T19:33:58.487Z,32.10
2018-01-22T19:36:27.164Z,32.40
2018-01-22T19:38:55.456Z,32.40
2018-01-22T19:41:24.489Z,30.50
2018-01-22T19:43:52.722Z,31.00
2018-01-22T19:46:21.402Z,31.90
2018-01-22T19:48:50.535Z,31.80
2018-01-22T19:51:18.978Z,32.50
2018-01-22T19:53:48.077Z,30.70
2018-01-22T19:56:18.862Z,31.60
2018-01-22T19:58:47.982Z,31.50
2018-01-22T20:01:18.185Z,30.70
2018-01-22T20:03:48.621Z,30.70
2018-01-22T20:06:17.238Z,31.30
2018-01-22T20:08:48.410Z,30.80
2018-01-22T20:11:19.427Z,30.50
2018-01-22T20:13:52.390Z,30.40
2018-01-22T20:16:24.035Z,30.90
2018-01-22T20:18:56.313Z,30.80
2018-01-22T20:21:28.304Z,30.80
2018-01-22T20:23:59.755Z,30.80
2018-01-22T20:26:34.027Z,30.60
2018-01-22T20:29:05.986Z,30.60
2018-01-22T20:31:36.529Z,30.50
2018-01-22T20:34:08.448Z,30.70
2018-01-22T20:36:41.401Z,30.80
2018-01-22T20:39:14.178Z,31.50
2018-01-22T20:41:44.811Z,30.50
2018-01-22T20:44:13.995Z,30.70
2018-01-22T20:46:41.977Z,30.60
2018-01-22T20:49:11.655Z,29.80
2018-01-22T20:51:41.418Z,30.70
2018-01-22T20:54:12.442Z,31.20
2018-01-22T20:56:41.628Z,31.00
2018-01-22T20:59:10.116Z,31.00
2018-01-22T21:01:40.643Z,31.50
2018-01-22T21:04:12.634Z,31.10
2018-01-22T21:06:43.931Z,31.00
2018-01-22T21:09:12.232Z,30.50
2018-01-22T21:11:41.424Z,31.20
2018-01-22T21:14:09.907Z,30.90
2018-01-22T21:16:37.876Z,30.70
2018-01-22T21:19:06.640Z,30.70
2018-01-22T21:21:35.453Z,30.60
2018-01-22T21:24:05.884Z,31.10
2018-01-22T21:26:36.302Z,31.00
2018-01-22T21:29:04.173Z,30.70
2018-01-22T21:31:32.039Z,31.30
2018-01-22T21:34:00.117Z,31.90
2018-01-22T21:36:29.011Z,30.80
2018-01-22T21:38:57.089Z,30.40
2018-01-22T21:41:25.865Z,30.70
2018-01-22T21:43:55.484Z,30.60
2018-01-22T21:46:23.333Z,30.50
2018-01-22T21:48:51.209Z,30.70
2018-01-22T21:51:19.183Z,30.70
2018-01-22T21:53:47.049Z,30.80
2018-01-22T21:56:14.910Z,31.00
2018-01-22T21:58:42.980Z,31.10
2018-01-22T22:01:10.848Z,30.80
2018-01-22T22:03:38.716Z,30.90
2018-01-22T22:06:06.892Z,31.20
2018-01-22T22:08:35.668Z,31.50
2018-01-22T22:11:03.535Z,31.10
2018-01-22T22:13:31.402Z,31.50
2018-01-22T22:15:59.267Z,31.00
2018-01-22T22:18:27.749Z,30.90
2018-01-22T22:20:55.717Z,31.10
2018-01-22T22:23:23.688Z,31.10
2018-01-22T22:25:51.664Z,31.00
2018-01-22T22:28:19.520Z,31.20
2018-01-22T22:30:47.387Z,31.30
2018-01-22T22:33:15.363Z,31.20
2018-01-22T22:35:43.232Z,31.50
2018-01-22T22:38:11.090Z,31.60
2018-01-22T22:40:38.955Z,31.40
2018-01-22T22:43:06.830Z,31.90
2018-01-22T22:45:34.791Z,31.60
2018-01-22T22:48:03.603Z,31.20
2018-01-22T22:50:35.334Z,31.70
2018-01-22T22:55:37.010Z,31.40
2018-01-22T22:58:04.884Z,31.50
2018-01-22T23:00:32.744Z,31.40
2018-01-22T23:03:00.608Z,32.60
2018-01-22T23:05:28.474Z,34.10
2018-01-22T23:07:56.342Z,31.60
2018-01-22T23:10:24.320Z,32.10
2018-01-22T23:12:52.180Z,31.70
2018-01-22T23:15:19.966Z,31.60
2018-01-22T23:17:47.698Z,31.30
2018-01-22T23:20:15.442Z,31.80
2018-01-22T23:22:43.267Z,31.30
2018-01-22T23:25:11.064Z,31.60
2018-01-22T23:27:38.868Z,31.90
2018-01-22T23:30:06.641Z,31.50
2018-01-22T23:32:34.422Z,32.10
2018-01-22T23:35:02.178Z,31.80
2018-01-22T23:37:30.012Z,31.90
2018-01-22T23:39:57.739Z,33.00
2018-01-22T23:42:25.469Z,31.80
2018-01-22T23:44:53.310Z,31.70
2018-01-22T23:47:21.054Z,31.60
2018-01-22T23:49:48.793Z,31.70
2018-01-22T23:52:16.546Z,32.10
2018-01-22T23:54:44.366Z,32.00
2018-01-22T23:57:12.113Z,33.30
2018-01-22T23:59:39.831Z,33.00
